createdAt,value
2022-11-05T00:04:36.070Z,11.20
2022-11-05T00:09:38.204Z,11.14
2022-11-05T00:14:58.599Z,11.17
2022-11-05T00:20:00.742Z,11.13
2022-11-05T00:25:14.564Z,11.21
2022-11-05T00:30:24.940Z,11.25
2022-11-05T00:35:26.915Z,11.14
2022-11-05T00:40:28.834Z,11.25
2022-11-05T00:45:31.140Z,11.36
2022-11-05T00:50:33.674Z,11.23
2022-11-05T00:55:40.297Z,11.25
2022-11-05T01:00:44.785Z,11.24
2022-11-05T01:05:49.327Z,11.21
2022-11-05T01:10:56.777Z,11.32
2022-11-05T01:16:06.056Z,11.45
2022-11-05T01:21:13.317Z,11.43
2022-11-05T01:26:15.439Z,11.40
2022-11-05T01:31:17.265Z,11.36
2022-11-05T01:36:19.118Z,11.32
2022-11-05T01:41:20.922Z,11.36
2022-11-05T01:46:46.122Z,11.31
2022-11-05T01:51:49.002Z,11.31
2022-11-05T01:56:56.127Z,11.34
2022-11-05T02:01:58.497Z,11.27
2022-11-05T02:07:00.546Z,11.25
2022-11-05T02:12:02.884Z,11.25
2022-11-05T02:17:10.545Z,11.29
2022-11-05T02:22:58.619Z,11.28
2022-11-05T02:28:03.281Z,11.43
2022-11-05T02:33:27.501Z,11.47
2022-11-05T02:38:45.766Z,11.36
2022-11-05T02:44:22.339Z,11.35
2022-11-05T02:49:32.398Z,11.39
2022-11-05T02:54:41.423Z,11.37
2022-11-05T02:59:43.222Z,11.33
2022-11-05T03:04:45.136Z,11.28
2022-11-05T03:09:46.975Z,11.28
2022-11-05T03:15:31.904Z,11.25
2022-11-05T03:21:11.443Z,11.29
2022-11-05T03:26:23.644Z,11.28
2022-11-05T03:31:28.318Z,11.27
2022-11-05T03:36:41.343Z,11.32
2022-11-05T03:41:47.973Z,11.39
2022-11-05T03:46:52.231Z,11.48
2022-11-05T03:52:18.518Z,11.57
2022-11-05T03:57:29.662Z,11.53
2022-11-05T04:02:31.860Z,11.51
2022-11-05T04:07:52.422Z,11.59
2022-11-05T04:13:13.248Z,11.65
2022-11-05T04:18:15.185Z,11.65
2022-11-05T04:23:35.704Z,11.66
2022-11-05T04:28:55.975Z,11.71
2022-11-05T04:33:57.769Z,11.68
2022-11-05T04:38:59.586Z,11.63
2022-11-05T04:44:01.434Z,11.58
2022-11-05T04:49:03.247Z,11.61
2022-11-05T04:54:05.095Z,11.62
2022-11-05T04:59:06.876Z,11.61
2022-11-05T05:04:08.711Z,11.56
2022-11-05T05:09:10.516Z,11.60
2022-11-05T05:14:12.655Z,11.59
2022-11-05T05:19:14.584Z,11.58
2022-11-05T05:24:20.228Z,11.49
2022-11-05T05:29:22.016Z,11.48
2022-11-05T05:34:23.821Z,11.45
2022-11-05T05:39:27.035Z,11.56
2022-11-05T05:44:28.844Z,11.48
2022-11-05T05:49:30.697Z,11.47
2022-11-05T05:54:35.978Z,11.48
2022-11-05T05:59:40.162Z,11.47
2022-11-05T06:04:41.951Z,11.43
2022-11-05T06:09:43.745Z,11.45
2022-11-05T06:14:45.699Z,11.47
2022-11-05T06:19:48.015Z,11.53
2022-11-05T06:24:49.795Z,11.48
2022-11-05T06:29:51.601Z,11.48
2022-11-05T06:34:53.558Z,11.52
2022-11-05T06:39:57.243Z,11.50
2022-11-05T06:44:59.092Z,11.55
2022-11-05T06:50:00.951Z,11.51
2022-11-05T06:55:02.803Z,11.47
2022-11-05T07:00:08.065Z,11.46
2022-11-05T07:05:12.943Z,11.33
2022-11-05T07:10:17.515Z,11.31
2022-11-05T07:15:19.320Z,11.32
2022-11-05T07:20:21.122Z,11.41
2022-11-05T07:25:22.911Z,11.38
2022-11-05T07:30:25.208Z,11.40
2022-11-05T07:35:27.320Z,11.41
2022-11-05T07:40:30.435Z,11.41
2022-11-05T07:45:32.334Z,11.40
2022-11-05T07:50:36.626Z,11.39
2022-11-05T07:55:40.543Z,11.53
2022-11-05T08:00:42.599Z,11.70
2022-11-05T08:05:47.156Z,11.79
2022-11-05T08:10:49.128Z,11.85
2022-11-05T08:15:50.966Z,11.85
2022-11-05T08:20:52.760Z,11.91
2022-11-05T08:25:55.851Z,11.94
2022-11-05T08:30:58.015Z,11.93
2022-11-05T08:36:04.459Z,11.94
2022-11-05T08:41:06.516Z,12.00
2022-11-05T08:46:08.626Z,11.99
2022-11-05T08:51:10.420Z,11.97
2022-11-05T08:56:12.363Z,11.98
2022-11-05T09:01:14.189Z,11.93
2022-11-05T09:06:16.055Z,12.03
2022-11-05T09:11:18.333Z,12.12
2022-11-05T09:16:25.994Z,12.13
2022-11-05T09:21:27.827Z,12.23
2022-11-05T09:26:29.638Z,12.34
2022-11-05T09:31:31.458Z,12.29
2022-11-05T09:36:33.267Z,12.39
2022-11-05T09:41:40.104Z,12.43
2022-11-05T09:46:56.532Z,12.41
2022-11-05T09:51:59.502Z,12.41
2022-11-05T09:57:03.265Z,12.45
2022-11-05T10:02:48.228Z,12.82
2022-11-05T10:08:10.730Z,12.93
2022-11-05T10:13:32.129Z,13.14
2022-11-05T10:18:39.300Z,13.07
2022-11-05T10:23:41.504Z,13.06
2022-11-05T10:28:43.308Z,13.09
2022-11-05T10:33:49.350Z,13.06
2022-11-05T10:38:52.039Z,13.09
2022-11-05T10:44:22.812Z,13.42
2022-11-05T10:50:02.876Z,13.51
2022-11-05T10:55:16.257Z,13.63
2022-11-05T11:00:20.638Z,13.65
2022-11-05T11:05:33.139Z,13.79
2022-11-05T11:10:42.394Z,13.72
2022-11-05T11:15:44.561Z,13.52
2022-11-05T11:20:46.759Z,13.45
2022-11-05T11:25:54.079Z,13.45
2022-11-05T11:31:14.897Z,13.50
2022-11-05T11:36:20.204Z,13.68
2022-11-05T11:41:29.953Z,14.05
2022-11-05T11:46:34.054Z,14.14
2022-11-05T11:51:49.527Z,14.28
2022-11-05T11:56:51.859Z,14.23
2022-11-05T12:01:56.394Z,14.09
2022-11-05T12:07:32.115Z,13.97
2022-11-05T12:12:46.707Z,13.77
2022-11-05T12:18:04.049Z,13.78
2022-11-05T12:23:26.775Z,13.85
2022-11-05T12:29:17.202Z,13.77
2022-11-05T12:34:44.577Z,13.79
2022-11-05T12:40:17.203Z,13.96
2022-11-05T12:45:29.267Z,14.41
2022-11-05T12:50:44.133Z,15.46
2022-11-05T12:55:49.777Z,15.60
2022-11-05T13:01:00.209Z,15.34
2022-11-05T13:06:07.778Z,15.18
2022-11-05T13:11:29.724Z,17.38
2022-11-05T13:16:38.590Z,19.16
2022-11-05T13:21:42.690Z,21.31
2022-11-05T13:26:54.434Z,23.22
2022-11-05T13:32:09.547Z,23.65
2022-11-05T13:37:31.850Z,22.30
2022-11-05T13:42:39.758Z,23.07
2022-11-05T13:47:56.171Z,23.81
2022-11-05T13:53:27.565Z,23.24
2022-11-05T13:58:54.935Z,22.14
2022-11-05T14:03:57.159Z,20.37
2022-11-05T14:09:02.523Z,18.69
2022-11-05T14:14:17.367Z,17.09
2022-11-05T14:19:19.136Z,15.93
2022-11-05T14:24:24.012Z,15.56
2022-11-05T14:29:36.295Z,15.38
2022-11-05T14:35:24.599Z,14.93
2022-11-05T14:40:31.812Z,14.83
2022-11-05T14:45:39.627Z,14.84
2022-11-05T14:50:42.826Z,14.63
2022-11-05T14:55:45.943Z,14.46
2022-11-05T15:00:48.287Z,14.48
2022-11-05T15:06:03.705Z,14.44
2022-11-05T15:11:29.588Z,14.39
2022-11-05T15:16:49.289Z,14.28
2022-11-05T15:21:53.450Z,13.91
2022-11-05T15:27:37.087Z,13.57
2022-11-05T15:32:39.333Z,13.48
2022-11-05T15:37:53.407Z,13.34
2022-11-05T15:43:17.389Z,12.96
2022-11-05T15:48:20.140Z,12.96
2022-11-05T15:54:08.848Z,13.06
2022-11-05T15:59:01.918Z,13.08
2022-11-05T16:04:16.474Z,13.05
2022-11-05T16:09:26.280Z,12.97
2022-11-05T16:14:35.219Z,12.85
2022-11-05T16:19:42.335Z,12.69
2022-11-05T16:24:45.142Z,12.52
2022-11-05T16:29:55.735Z,12.45
2022-11-05T16:35:00.580Z,12.37
2022-11-05T16:40:03.759Z,12.25
2022-11-05T16:45:06.952Z,12.13
2022-11-05T16:50:23.995Z,12.08
2022-11-05T16:55:26.098Z,11.99
2022-11-05T17:00:28.322Z,11.89
2022-11-05T17:05:31.786Z,11.83
2022-11-05T17:10:33.758Z,11.77
2022-11-05T17:15:35.857Z,11.69
2022-11-05T17:20:46.426Z,11.66
2022-11-05T17:25:51.149Z,11.60
2022-11-05T17:30:53.894Z,11.51
2022-11-05T17:35:56.302Z,11.45
2022-11-05T17:40:58.130Z,11.41
2022-11-05T17:46:04.337Z,11.31
2022-11-05T17:51:11.741Z,11.23
2022-11-05T17:56:27.195Z,11.18
2022-11-05T18:01:35.900Z,11.10
2022-11-05T18:06:39.863Z,11.08
2022-11-05T18:11:42.619Z,11.05
2022-11-05T18:16:44.505Z,10.95
2022-11-05T18:21:46.376Z,10.91
2022-11-05T18:26:48.688Z,10.85
2022-11-05T18:31:50.525Z,10.86
2022-11-05T18:36:56.390Z,10.82
2022-11-05T18:41:58.610Z,10.78
2022-11-05T18:47:00.682Z,10.73
2022-11-05T18:52:03.071Z,10.67
2022-11-05T18:57:04.945Z,10.62
2022-11-05T19:02:08.791Z,10.59
2022-11-05T19:07:12.037Z,10.54
2022-11-05T19:12:14.008Z,10.46
2022-11-05T19:17:15.928Z,10.40
2022-11-05T19:22:18.620Z,10.39
2022-11-05T19:27:20.547Z,10.37
2022-11-05T19:32:22.451Z,10.33
2022-11-05T19:37:24.408Z,10.31
2022-11-05T19:42:26.819Z,10.29
2022-11-05T19:47:29.641Z,10.29
2022-11-05T19:52:31.601Z,10.23
2022-11-05T19:57:36.100Z,10.20
2022-11-05T20:02:38.228Z,10.15
2022-11-05T20:07:40.796Z,10.11
2022-11-05T20:12:42.708Z,10.08
2022-11-05T20:17:48.760Z,10.10
2022-11-05T20:22:53.348Z,10.06
2022-11-05T20:27:57.387Z,10.03
2022-11-05T20:32:59.166Z,10.01
2022-11-05T20:38:00.954Z,9.93
2022-11-05T20:43:02.778Z,9.85
2022-11-05T20:48:04.975Z,9.81
2022-11-05T20:53:06.751Z,9.79
2022-11-05T20:58:09.263Z,9.77
2022-11-05T21:03:11.406Z,9.75
2022-11-05T21:08:13.933Z,9.73
2022-11-05T21:13:16.114Z,9.75
2022-11-05T21:18:21.624Z,9.79
2022-11-05T21:23:23.655Z,9.79
2022-11-05T21:28:25.531Z,9.78
2022-11-05T21:33:27.795Z,9.73
2022-11-05T21:38:29.569Z,9.67
2022-11-05T21:43:31.660Z,9.66
2022-11-05T21:48:34.073Z,9.62
2022-11-05T21:53:54.588Z,9.58
2022-11-05T21:59:15.146Z,9.56
2022-11-05T22:04:17.034Z,9.49
2022-11-05T22:09:18.835Z,9.51
2022-11-05T22:14:20.682Z,9.52
2022-11-05T22:19:22.884Z,9.54
2022-11-05T22:24:25.083Z,9.48
2022-11-05T22:29:27.470Z,9.38
2022-11-05T22:34:29.278Z,9.30
2022-11-05T22:39:31.481Z,9.26
2022-11-05T22:44:33.548Z,9.27
2022-11-05T22:49:35.472Z,9.34
2022-11-05T22:54:39.471Z,9.31
2022-11-05T22:59:41.446Z,9.39
2022-11-05T23:04:43.245Z,9.38
2022-11-05T23:10:03.816Z,9.32
2022-11-05T23:15:07.200Z,9.32
2022-11-05T23:20:33.247Z,9.31
2022-11-05T23:25:35.468Z,9.31
2022-11-05T23:31:01.419Z,9.30
2022-11-05T23:36:21.862Z,9.27
2022-11-05T23:42:01.840Z,9.22
2022-11-05T23:47:39.147Z,9.18
2022-11-05T23:52:40.972Z,9.15
2022-11-05T23:57:42.826Z,9.18
